Time;durP1;ratioP1;P1;durP2;ratioP2;P2;SDS_P1;SDS_P2;PMS_P1;PMS_P2;Temp;Humidity;BMP_temperature;BMP_pressure;BME280_temperature;BME280_humidity;BME280_pressure;Samples;Min_cycle;Max_cycle;Signal;HPM_P1;HPM_P2
2021/03/05 00:00:09;;;;;;;2.97;1.20;;;;;;;-0.58;97.72;101656.78;4967939;28;20293;-76
2021/03/05 00:02:35;;;;;;;6.10;1.60;;;;;;;-0.55;98.45;101669.81;4972316;28;20285;-76
2021/03/05 00:05:00;;;;;;;2.47;1.07;;;;;;;-0.52;99.65;101670.00;4972301;28;20286;-76
2021/03/05 00:07:26;;;;;;;2.40;0.83;;;;;;;-0.58;98.26;101673.09;4972086;28;20094;-76
2021/03/05 00:09:51;;;;;;;3.60;1.40;;;;;;;-0.66;99.30;101667.47;4973032;28;20093;-76
2021/03/05 00:12:17;;;;;;;2.47;1.20;;;;;;;-0.76;99.57;101677.97;4972720;28;20038;-76
2021/03/05 00:14:43;;;;;;;2.83;1.20;;;;;;;-0.83;100.00;101687.78;4972618;28;20397;-76
2021/03/05 00:17:09;;;;;;;3.00;1.20;;;;;;;-0.94;100.00;101687.09;4971952;28;20057;-76
2021/03/05 00:19:34;;;;;;;2.60;1.10;;;;;;;-0.96;100.00;101691.25;4963996;28;20283;-76
2021/03/05 00:22:00;;;;;;;2.43;1.10;;;;;;;-0.99;100.00;101699.59;4970730;28;20452;-76
2021/03/05 00:24:26;;;;;;;3.43;1.40;;;;;;;-1.05;100.00;101700.91;4973077;28;20129;-76
2021/03/05 00:26:51;;;;;;;2.80;1.20;;;;;;;-1.09;100.00;101697.25;4972128;28;20030;-76
2021/03/05 00:29:16;;;;;;;2.20;1.17;;;;;;;-1.01;100.00;101696.06;4972280;28;20384;-76
2021/03/05 00:31:42;;;;;;;7.07;1.60;;;;;;;-1.13;100.00;101702.09;4972612;28;20097;-76
2021/03/05 00:34:07;;;;;;;4.53;1.37;;;;;;;-1.20;100.00;101713.66;4971248;28;20499;-76
2021/03/05 00:36:33;;;;;;;7.37;1.50;;;;;;;-1.07;100.00;101710.19;4966922;28;20038;-76
2021/03/05 00:38:59;;;;;;;6.80;1.50;;;;;;;-0.99;100.00;101711.56;4972983;28;20023;-77
2021/03/05 00:41:24;;;;;;;4.27;1.60;;;;;;;-1.08;100.00;101719.56;4962236;28;20027;-77
2021/03/05 00:43:49;;;;;;;5.87;1.30;;;;;;;-1.20;100.00;101714.53;4971084;28;20038;-77
2021/03/05 00:46:15;;;;;;;2.40;1.37;;;;;;;-1.34;100.00;101715.28;4971808;28;20464;-77
2021/03/05 00:48:40;;;;;;;3.77;1.40;;;;;;;-1.39;100.00;101723.47;4972392;28;20111;-77
2021/03/05 00:51:06;;;;;;;4.17;1.40;;;;;;;-1.39;100.00;101723.47;4969999;28;20071;-77
2021/03/05 00:53:31;;;;;;;6.03;1.60;;;;;;;-1.43;100.00;101724.97;4972457;28;20026;-78
2021/03/05 00:55:57;;;;;;;3.63;1.50;;;;;;;-1.58;100.00;101727.38;4972860;28;20435;-78
2021/03/05 00:58:22;;;;;;;4.13;1.70;;;;;;;-1.62;100.00;101727.09;4976193;28;20019;-78
2021/03/05 01:00:47;;;;;;;3.93;1.50;;;;;;;-1.51;100.00;101731.25;4975376;28;20503;-78
2021/03/05 01:03:13;;;;;;;3.77;1.63;;;;;;;-1.58;100.00;101735.06;4974689;28;20030;-78
2021/03/05 01:05:39;;;;;;;3.63;1.30;;;;;;;-1.70;100.00;101743.63;4975372;28;20034;-78
2021/03/05 01:08:05;;;;;;;3.13;1.40;;;;;;;-1.82;100.00;101746.25;4975314;28;20502;-78
2021/03/05 01:10:30;;;;;;;3.67;1.30;;;;;;;-1.78;100.00;101741.44;4975294;28;20550;-78
2021/03/05 01:12:56;;;;;;;2.47;1.10;;;;;;;-1.75;100.00;101743.31;4973626;28;20270;-78
2021/03/05 01:15:22;;;;;;;4.43;1.30;;;;;;;-1.75;100.00;101745.00;4974948;28;20062;-78
2021/03/05 01:17:47;;;;;;;3.83;1.40;;;;;;;-1.89;100.00;101752.63;4973460;28;20281;-78
2021/03/05 01:20:16;;;;;;;5.30;1.50;;;;;;;-1.98;100.00;101752.00;4975410;28;20027;-78
2021/03/05 01:22:42;;;;;;;3.07;1.30;;;;;;;-1.98;100.00;101757.13;4975540;28;20050;-78
2021/03/05 01:25:09;;;;;;;4.13;1.20;;;;;;;-1.99;100.00;101755.34;4975067;28;20274;-78
2021/03/05 01:27:35;;;;;;;6.67;1.50;;;;;;;-1.97;100.00;101769.16;4973708;28;20542;-78
2021/03/05 01:30:05;;;;;;;4.97;1.70;;;;;;;-2.00;100.00;101758.69;4972861;28;20274;-78
2021/03/05 01:32:31;;;;;;;4.77;1.60;;;;;;;-2.01;100.00;101771.41;4973538;28;20035;-78
2021/03/05 01:34:56;;;;;;;3.10;1.30;;;;;;;-2.08;100.00;101768.41;4974056;28;20280;-78
2021/03/05 01:37:22;;;;;;;2.73;1.30;;;;;;;-2.12;100.00;101774.13;4973713;28;20541;-79
2021/03/05 01:39:47;;;;;;;2.27;1.27;;;;;;;-2.16;100.00;101766.13;4975219;28;20035;-79
2021/03/05 01:42:13;;;;;;;2.97;1.30;;;;;;;-2.19;100.00;101776.13;4974050;28;20023;-78
2021/03/05 01:44:39;;;;;;;4.33;1.40;;;;;;;-2.24;100.00;101783.50;4973834;28;20170;-79
2021/03/05 01:47:05;;;;;;;6.10;2.83;;;;;;;-2.23;100.00;101780.16;4973209;28;20482;-79
2021/03/05 01:49:31;;;;;;;3.30;1.60;;;;;;;-2.29;100.00;101786.53;4975359;28;20401;-78
2021/03/05 01:51:56;;;;;;;7.40;1.80;;;;;;;-2.40;100.00;101776.44;4973495;28;20062;-78
2021/03/05 01:54:21;;;;;;;3.87;1.60;;;;;;;-2.41;100.00;101779.78;4972404;28;20356;-78
2021/03/05 01:56:50;;;;;;;3.27;1.80;;;;;;;-2.54;100.00;101789.94;4974104;28;20015;-78
2021/03/05 01:59:20;;;;;;;8.03;1.90;;;;;;;-2.53;100.00;101784.03;4972766;28;20041;-79
2021/03/05 02:01:46;;;;;;;4.67;1.37;;;;;;;-2.51;100.00;101787.56;4983588;28;20332;-77
2021/03/05 02:04:13;;;;;;;2.63;1.23;;;;;;;-2.43;100.00;101796.66;5035838;23;20356;-70
2021/03/05 02:06:39;;;;;;;5.93;1.50;;;;;;;-2.43;100.00;101796.66;4989662;28;20030;-70
2021/03/05 02:09:07;;;;;;;3.63;1.27;;;;;;;-2.53;100.00;101794.25;4990673;28;20273;-70
2021/03/05 02:11:33;;;;;;;4.00;1.70;;;;;;;-2.53;100.00;101809.63;4992621;28;20045;-70
2021/03/05 02:14:05;;;;;;;3.53;1.30;;;;;;;-2.57;100.00;101807.59;4990356;28;20405;-70
2021/03/05 02:17:07;;;;;;;3.90;1.50;;;;;;;-2.57;100.00;101807.59;4993303;28;20771;-70
2021/03/05 02:19:45;;;;;;;4.80;1.50;;;;;;;-2.56;100.00;101804.25;4992597;28;20525;-70
2021/03/05 02:22:26;;;;;;;3.87;1.63;;;;;;;-2.69;100.00;101811.84;4993007;28;20049;-70
2021/03/05 02:25:18;;;;;;;4.87;1.57;;;;;;;-2.69;100.00;101811.84;4992707;28;20285;-70
2021/03/05 02:28:22;;;;;;;3.33;1.40;;;;;;;-2.72;100.00;101814.19;4995638;28;20293;-70
2021/03/05 02:31:08;;;;;;;4.73;1.63;;;;;;;-2.64;100.00;101830.13;4991315;28;20045;-70
2021/03/05 02:33:40;;;;;;;4.80;1.43;;;;;;;-2.68;100.00;101823.84;4990919;28;20289;-70
2021/03/05 02:36:09;;;;;;;4.72;1.55;;;;;;;-2.77;100.00;101825.78;4991808;28;20281;-70
2021/03/05 02:38:36;;;;;;;4.97;1.53;;;;;;;-2.74;100.00;101834.56;4992513;28;20039;-70
2021/03/05 02:41:04;;;;;;;5.60;1.50;;;;;;;-2.71;100.00;101839.00;4991230;28;20309;-70
2021/03/05 02:43:32;;;;;;;5.40;1.50;;;;;;;-2.82;100.00;101837.31;4992339;28;20273;-70
2021/03/05 02:46:06;;;;;;;5.27;1.40;;;;;;;-2.81;100.00;101831.44;4990290;28;20351;-70
2021/03/05 02:48:38;;;;;;;5.13;1.80;;;;;;;-2.85;100.00;101834.56;4987510;28;20368;-71
2021/03/05 02:51:06;;;;;;;3.60;1.50;;;;;;;-2.82;100.00;101830.53;4992460;28;20572;-71
2021/03/05 02:53:34;;;;;;;3.00;1.70;;;;;;;-2.81;100.00;101837.44;4990656;28;20034;-70
2021/03/05 02:56:04;;;;;;;6.40;1.50;;;;;;;-2.91;100.00;101826.41;4991331;28;20290;-70
2021/03/05 02:58:31;;;;;;;4.10;1.53;;;;;;;-3.00;100.00;101830.09;4989754;28;20293;-70
2021/03/05 03:00:56;;;;;;;2.60;1.30;;;;;;;-3.10;100.00;101827.63;4989656;28;20428;-70
2021/03/05 03:03:23;;;;;;;3.10;1.43;;;;;;;-3.20;100.00;101837.94;4990841;28;20371;-70
2021/03/05 03:05:50;;;;;;;7.80;1.80;;;;;;;-3.12;100.00;101843.63;4989832;28;20075;-70
2021/03/05 03:08:18;;;;;;;5.97;1.57;;;;;;;-3.21;100.00;101838.72;4990971;28;20290;-70
2021/03/05 03:10:45;;;;;;;4.47;1.37;;;;;;;-3.25;100.00;101845.28;4992052;28;20293;-70
2021/03/05 03:13:11;;;;;;;5.50;1.30;;;;;;;-3.22;100.00;101852.28;4991233;28;20278;-70
2021/03/05 03:15:38;;;;;;;2.60;1.23;;;;;;;-3.22;100.00;101851.41;4991649;28;20324;-70
2021/03/05 03:18:08;;;;;;;4.43;1.50;;;;;;;-3.10;100.00;101863.44;4991603;28;20261;-70
2021/03/05 03:20:34;;;;;;;5.87;1.70;;;;;;;-2.89;100.00;101864.16;4989625;28;20285;-70
2021/03/05 03:22:59;;;;;;;5.47;1.40;;;;;;;-2.77;100.00;101866.72;4990416;28;20285;-71
2021/03/05 03:25:25;;;;;;;5.30;1.40;;;;;;;-2.77;100.00;101859.06;4991081;28;20777;-71
2021/03/05 03:27:53;;;;;;;5.77;1.30;;;;;;;-2.69;100.00;101857.91;4990469;28;20509;-71
2021/03/05 03:30:19;;;;;;;2.07;1.10;;;;;;;-2.58;100.00;101872.41;4989952;28;20369;-71
2021/03/05 03:32:46;;;;;;;4.77;1.40;;;;;;;-2.52;100.00;101867.75;4991384;28;20285;-71
2021/03/05 03:35:12;;;;;;;3.60;1.43;;;;;;;-2.45;100.00;101869.94;4989098;28;20088;-71
2021/03/05 03:37:39;;;;;;;3.23;1.10;;;;;;;-2.49;100.00;101875.63;4990713;28;20773;-71
2021/03/05 03:40:10;;;;;;;6.00;1.47;;;;;;;-2.59;100.00;101875.72;4991940;28;20266;-71
2021/03/05 03:42:36;;;;;;;3.92;1.50;;;;;;;-2.71;100.00;101868.03;4991394;28;20750;-71
2021/03/05 03:45:05;;;;;;;3.93;1.27;;;;;;;-2.72;100.00;101876.50;4990512;28;20034;-70
2021/03/05 03:47:31;;;;;;;3.53;1.60;;;;;;;-2.77;100.00;101869.28;4990314;28;20114;-71
2021/03/05 03:49:59;;;;;;;3.60;1.40;;;;;;;-2.79;100.00;101879.38;4991207;28;20833;-71
2021/03/05 03:52:38;;;;;;;7.83;1.70;;;;;;;-2.89;100.00;101876.06;4989288;28;20359;-71
2021/03/05 03:55:08;;;;;;;4.30;1.80;;;;;;;-2.86;100.00;101876.28;4990540;28;20304;-71
2021/03/05 03:57:38;;;;;;;3.70;1.97;;;;;;;-2.82;100.00;101883.38;4990212;28;20285;-71
2021/03/05 04:00:05;;;;;;;6.50;3.13;;;;;;;-2.81;100.00;101882.63;4991187;28;20312;-71
2021/03/05 04:02:32;;;;;;;7.80;2.00;;;;;;;-2.79;100.00;101888.72;4984796;28;20290;-70
2021/03/05 04:05:02;;;;;;;4.47;1.40;;;;;;;-2.80;100.00;101889.50;4987336;28;20638;-71
2021/03/05 04:07:28;;;;;;;4.43;1.83;;;;;;;-2.88;100.00;101890.63;4992200;28;20790;-71
2021/03/05 04:09:55;;;;;;;4.13;1.90;;;;;;;-2.97;100.00;101883.16;4990117;28;20336;-71
2021/03/05 04:12:26;;;;;;;3.20;1.50;;;;;;;-3.04;100.00;101892.03;4991113;28;20293;-71
2021/03/05 04:14:53;;;;;;;5.70;2.27;;;;;;;-3.14;100.00;101892.13;4990145;28;20285;-71
2021/03/05 04:17:19;;;;;;;6.20;1.90;;;;;;;-3.20;100.00;101901.88;4991056;28;20356;-71
2021/03/05 04:19:45;;;;;;;6.43;1.90;;;;;;;-3.21;100.00;101895.00;4991557;28;20663;-71
2021/03/05 04:22:12;;;;;;;6.83;1.80;;;;;;;-3.23;100.00;101896.53;4990331;28;20375;-71
2021/03/05 04:24:37;;;;;;;6.27;1.87;;;;;;;-3.22;100.00;101900.88;4990674;28;20308;-71
2021/03/05 04:27:11;;;;;;;6.63;1.90;;;;;;;-3.23;100.00;101890.53;4990813;28;20816;-71
2021/03/05 04:29:36;;;;;;;6.47;1.73;;;;;;;-3.19;100.00;101898.56;4987688;28;20041;-71
2021/03/05 04:32:02;;;;;;;5.87;2.03;;;;;;;-3.11;100.00;101900.03;4989977;28;20977;-71
2021/03/05 04:34:28;;;;;;;5.97;2.00;;;;;;;-3.02;100.00;101903.28;4994046;28;20137;-71
2021/03/05 04:36:53;;;;;;;6.07;1.60;;;;;;;-3.02;100.00;101910.06;4993612;28;20026;-71
2021/03/05 04:39:19;;;;;;;5.27;1.90;;;;;;;-3.01;100.00;101912.75;4994585;28;20080;-70
2021/03/05 04:41:45;;;;;;;3.13;1.57;;;;;;;-3.01;100.00;101910.19;4990524;28;20152;-70
2021/03/05 04:44:11;;;;;;;4.67;1.80;;;;;;;-3.06;100.00;101915.72;4993999;28;20038;-70
2021/03/05 04:46:36;;;;;;;3.50;1.63;;;;;;;-3.02;100.00;101923.75;4994710;28;20277;-70
2021/03/05 04:49:02;;;;;;;3.47;1.40;;;;;;;-3.07;100.00;101922.50;4993164;28;20080;-70
2021/03/05 04:51:27;;;;;;;2.83;1.40;;;;;;;-3.03;100.00;101932.22;4993891;28;20175;-70
2021/03/05 04:53:53;;;;;;;3.13;1.40;;;;;;;-3.10;100.00;101929.94;4994259;28;20030;-70
2021/03/05 04:56:18;;;;;;;5.00;1.70;;;;;;;-3.04;100.00;101938.06;4994954;28;20025;-70
2021/03/05 04:58:44;;;;;;;4.97;2.00;;;;;;;-3.08;100.00;101948.84;4993869;28;20052;-70
2021/03/05 05:01:09;;;;;;;7.47;2.83;;;;;;;-3.19;100.00;101949.69;4992149;28;20030;-70
2021/03/05 05:03:35;;;;;;;5.83;2.03;;;;;;;-3.29;100.00;101952.31;4993413;28;20040;-70
2021/03/05 05:06:01;;;;;;;10.70;2.63;;;;;;;-3.31;100.00;101959.00;4994415;28;20438;-71
2021/03/05 05:08:26;;;;;;;5.63;2.20;;;;;;;-3.27;100.00;101971.22;4992857;28;20030;-70
2021/03/05 05:10:52;;;;;;;5.57;2.20;;;;;;;-3.27;100.00;101973.78;4993304;28;20383;-70
2021/03/05 05:13:17;;;;;;;7.47;2.30;;;;;;;-3.24;100.00;101971.50;4994077;28;20030;-70
2021/03/05 05:15:43;;;;;;;5.90;2.10;;;;;;;-3.15;100.00;101967.09;4994532;28;20545;-70
2021/03/05 05:18:08;;;;;;;4.90;1.90;;;;;;;-3.16;100.00;101970.38;4993287;28;20026;-70
2021/03/05 05:20:34;;;;;;;4.47;1.80;;;;;;;-3.20;100.00;101965.81;4994026;28;20031;-70
2021/03/05 05:22:59;;;;;;;4.57;2.17;;;;;;;-3.27;100.00;101968.66;4993918;28;20030;-70
2021/03/05 05:25:25;;;;;;;4.47;1.63;;;;;;;-3.25;100.00;101970.59;4995263;28;20397;-71
2021/03/05 05:27:51;;;;;;;4.53;1.60;;;;;;;-3.27;100.00;101971.22;4993491;28;20034;-71
2021/03/05 05:30:17;;;;;;;4.50;1.60;;;;;;;-3.17;100.00;101978.84;4992689;28;20062;-70
2021/03/05 05:32:42;;;;;;;5.80;1.83;;;;;;;-3.11;100.00;101981.88;4994287;28;20305;-71
2021/03/05 05:35:08;;;;;;;5.73;1.70;;;;;;;-3.08;100.00;101989.78;4991873;28;20490;-71
2021/03/05 05:37:34;;;;;;;4.87;2.10;;;;;;;-3.10;100.00;101991.34;4994109;28;20048;-70
2021/03/05 05:39:59;;;;;;;6.83;1.87;;;;;;;-3.03;100.00;101998.72;4992187;28;20277;-70
2021/03/05 05:42:24;;;;;;;6.53;1.83;;;;;;;-2.93;100.00;102004.53;4993798;28;20076;-70
2021/03/05 05:44:50;;;;;;;4.03;1.70;;;;;;;-2.95;100.00;102005.31;4992709;28;20034;-70
2021/03/05 05:47:16;;;;;;;5.00;2.27;;;;;;;-2.89;100.00;102006.56;4994378;28;20038;-70
2021/03/05 05:49:44;;;;;;;6.30;1.80;;;;;;;-2.91;100.00;102013.22;4994738;28;20532;-70
2021/03/05 05:52:13;;;;;;;3.67;1.73;;;;;;;-2.95;100.00;102005.31;4994619;28;20797;-71
2021/03/05 05:54:41;;;;;;;7.23;1.87;;;;;;;-2.90;100.00;102007.34;4993793;28;20762;-71
2021/03/05 05:57:07;;;;;;;6.60;2.03;;;;;;;-2.87;100.00;102015.25;4994452;28;20265;-71
2021/03/05 05:59:33;;;;;;;3.30;1.83;;;;;;;-2.89;100.00;102012.56;4994794;28;20297;-71
2021/03/05 06:01:59;;;;;;;4.97;2.50;;;;;;;-2.93;100.00;102015.66;4993456;28;20475;-70
2021/03/05 06:04:25;;;;;;;6.60;2.27;;;;;;;-2.98;100.00;102020.44;4990122;28;20293;-71
2021/03/05 06:06:51;;;;;;;9.33;2.20;;;;;;;-2.97;100.00;102014.53;4992866;28;20037;-71
2021/03/05 06:09:17;;;;;;;11.50;2.33;;;;;;;-2.93;100.00;102017.31;4993387;28;20324;-71
2021/03/05 06:11:43;;;;;;;11.83;2.57;;;;;;;-2.88;100.00;102018.59;4992617;28;20646;-71
2021/03/05 06:14:10;;;;;;;5.97;2.50;;;;;;;-2.82;100.00;102025.03;4992091;28;20037;-70
2021/03/05 06:16:50;;;;;;;11.40;2.60;;;;;;;-2.82;100.00;102029.28;4992892;28;20125;-71
2021/03/05 06:19:18;;;;;;;5.43;2.67;;;;;;;-2.76;100.00;102034.88;4991814;28;20382;-71
2021/03/05 06:21:44;;;;;;;8.27;2.90;;;;;;;-2.66;100.00;102037.38;4992275;28;20281;-70
2021/03/05 06:24:09;;;;;;;6.57;2.60;;;;;;;-2.64;100.00;102040.94;4993036;28;20657;-71
2021/03/05 06:26:58;;;;;;;6.27;3.03;;;;;;;-2.55;100.00;102041.59;4993129;28;20309;-71
2021/03/05 06:29:41;;;;;;;7.30;2.67;;;;;;;-2.48;100.00;102048.97;4987506;28;20077;-71
2021/03/05 06:32:09;;;;;;;7.70;2.90;;;;;;;-2.41;100.00;102050.34;4988344;28;20842;-71
2021/03/05 06:34:52;;;;;;;6.47;2.60;;;;;;;-2.40;100.00;102067.50;4992398;28;20277;-71
2021/03/05 06:37:20;;;;;;;6.43;2.53;;;;;;;-2.36;100.00;102070.38;4990722;28;20434;-71
2021/03/05 06:39:59;;;;;;;6.30;2.60;;;;;;;-2.30;100.00;102081.84;4992039;28;20749;-71
2021/03/05 06:42:24;;;;;;;5.33;2.80;;;;;;;-2.27;100.00;102077.88;4990029;28;20281;-71
2021/03/05 06:44:50;;;;;;;7.90;3.07;;;;;;;-2.25;100.00;102080.56;4992536;28;20280;-71
2021/03/05 06:47:18;;;;;;;7.17;2.30;;;;;;;-2.16;100.00;102084.72;4991279;28;20169;-71
2021/03/05 06:49:46;;;;;;;10.70;3.40;;;;;;;-2.12;100.00;102081.59;4991912;28;20471;-71
2021/03/05 06:52:12;;;;;;;8.67;2.73;;;;;;;-2.05;100.00;102082.94;4989171;28;20816;-71
2021/03/05 06:54:40;;;;;;;8.57;3.00;;;;;;;-1.96;100.00;102096.41;4991184;28;20293;-71
2021/03/05 06:57:07;;;;;;;8.67;2.63;;;;;;;-1.93;100.00;102094.09;4991757;28;20277;-71
2021/03/05 06:59:45;;;;;;;6.17;2.47;;;;;;;-1.83;100.00;102104.22;4992731;28;20336;-71
2021/03/05 07:02:14;;;;;;;4.87;2.67;;;;;;;-1.79;100.00;102093.44;4992489;28;20265;-71
2021/03/05 07:04:42;;;;;;;7.73;2.40;;;;;;;-1.72;100.00;102102.47;4991866;28;20304;-71
2021/03/05 07:07:09;;;;;;;7.40;2.50;;;;;;;-1.66;100.00;102104.59;4991633;28;20812;-71
2021/03/05 07:09:43;;;;;;;7.13;2.43;;;;;;;-1.60;100.00;102105.91;4989780;28;20285;-71
2021/03/05 07:12:12;;;;;;;7.37;2.80;;;;;;;-1.53;100.00;102108.16;4988945;28;20282;-71
2021/03/05 07:14:43;;;;;;;6.13;2.43;;;;;;;-1.48;100.00;102105.91;4990606;28;20293;-71
2021/03/05 07:17:10;;;;;;;5.73;2.27;;;;;;;-1.40;100.00;102107.38;4986956;28;20953;-71
2021/03/05 07:19:37;;;;;;;4.20;2.17;;;;;;;-1.29;100.00;102119.31;4991480;28;20293;-71
2021/03/05 07:22:05;;;;;;;7.67;2.50;;;;;;;-1.16;100.00;102126.22;4989007;28;20277;-71
2021/03/05 07:24:32;;;;;;;6.70;2.10;;;;;;;-1.06;100.00;102133.78;4988438;28;20806;-71
2021/03/05 07:27:00;;;;;;;7.10;2.40;;;;;;;-0.95;100.00;102129.41;4988589;28;20293;-71
2021/03/05 07:29:33;;;;;;;9.03;2.50;;;;;;;-0.84;100.00;102125.03;4986835;28;20377;-71
2021/03/05 07:32:03;;;;;;;5.47;2.13;;;;;;;-0.75;100.00;102129.13;4988102;28;20285;-71
2021/03/05 07:34:31;;;;;;;5.53;2.30;;;;;;;-0.66;100.00;102132.34;4992556;28;20273;-71
2021/03/05 07:37:00;;;;;;;4.70;2.07;;;;;;;-0.57;100.00;102136.34;4985389;28;20372;-71
2021/03/05 07:39:28;;;;;;;7.27;2.33;;;;;;;-0.43;100.00;102139.06;4991472;28;20635;-71
2021/03/05 07:41:55;;;;;;;6.97;2.40;;;;;;;-0.32;100.00;102145.84;4991543;28;20265;-71
2021/03/05 07:44:22;;;;;;;6.23;1.90;;;;;;;-0.21;100.00;102143.13;4992250;28;20295;-71
2021/03/05 07:46:48;;;;;;;5.93;2.40;;;;;;;-0.12;99.32;102143.72;4990690;28;20273;-71
2021/03/05 07:49:15;;;;;;;5.67;1.70;;;;;;;-0.09;97.57;102143.94;4991781;28;20257;-71
2021/03/05 07:51:42;;;;;;;3.70;1.93;;;;;;;-0.02;97.66;102157.31;4991995;28;20034;-71
2021/03/05 07:54:07;;;;;;;4.83;1.73;;;;;;;0.06;97.16;102152.69;4992440;28;20273;-71
2021/03/05 07:56:44;;;;;;;4.67;1.73;;;;;;;0.37;96.69;102158.22;4992600;28;20614;-71
2021/03/05 07:59:11;;;;;;;3.17;1.40;;;;;;;1.66;91.17;102163.00;4991319;28;20073;-71
2021/03/05 08:01:51;;;;;;;8.57;1.50;;;;;;;3.39;82.35;102155.78;4992402;28;20269;-71
2021/03/05 08:04:17;;;;;;;3.50;1.30;;;;;;;5.00;75.29;102154.47;4991264;28;20320;-72
2021/03/05 08:06:42;;;;;;;5.60;1.10;;;;;;;6.27;67.25;102163.69;4992129;28;20332;-72
2021/03/05 08:09:09;;;;;;;6.83;1.27;;;;;;;6.78;62.43;102169.28;4991197;28;20027;-73
2021/03/05 08:11:39;;;;;;;2.23;0.77;;;;;;;7.61;58.94;102170.78;4992630;28;20474;-72
2021/03/05 08:14:20;;;;;;;8.83;1.17;;;;;;;7.72;57.58;102166.88;4992089;28;20093;-72
2021/03/05 08:16:47;;;;;;;8.00;1.10;;;;;;;7.48;58.74;102171.16;4991818;28;20037;-74
2021/03/05 08:19:16;;;;;;;2.70;0.97;;;;;;;8.29;55.71;102182.81;4991415;28;20042;-75
2021/03/05 08:21:51;;;;;;;3.47;1.00;;;;;;;8.65;52.95;102175.38;4991897;28;20088;-74
2021/03/05 08:24:24;;;;;;;4.57;1.10;;;;;;;8.78;52.93;102182.78;4990782;28;20039;-73
2021/03/05 08:27:15;;;;;;;3.90;0.90;;;;;;;8.67;53.71;102178.91;4992017;28;20105;-73
2021/03/05 08:29:58;;;;;;;3.43;0.90;;;;;;;9.55;52.02;102186.03;4990808;28;20034;-72
2021/03/05 08:32:35;;;;;;;2.60;0.80;;;;;;;8.86;51.87;102200.41;4990808;28;20084;-71
2021/03/05 08:35:04;;;;;;;2.53;0.80;;;;;;;9.47;53.94;102207.56;4991548;28;20121;-72
2021/03/05 08:37:37;;;;;;;2.70;0.80;;;;;;;10.01;51.95;102202.16;4990861;28;20096;-72
2021/03/05 08:40:12;;;;;;;3.13;0.90;;;;;;;9.49;50.95;102205.88;4991114;28;20042;-72
2021/03/05 08:42:42;;;;;;;2.17;0.80;;;;;;;9.42;49.29;102209.13;4991651;28;20034;-71
2021/03/05 08:45:20;;;;;;;2.17;0.90;;;;;;;9.36;53.37;102212.44;4989965;28;20062;-71
2021/03/05 08:47:48;;;;;;;2.00;0.70;;;;;;;9.87;51.71;102204.38;4991494;28;20031;-72
2021/03/05 08:50:17;;;;;;;6.83;1.07;;;;;;;10.14;48.90;102215.59;4991242;28;20037;-72
2021/03/05 08:52:45;;;;;;;3.97;0.90;;;;;;;9.61;50.43;102216.69;4992229;28;20143;-72
2021/03/05 08:55:12;;;;;;;3.83;1.10;;;;;;;9.89;49.33;102224.47;4985383;28;20432;-72
2021/03/05 08:57:38;;;;;;;3.83;0.87;;;;;;;9.74;50.99;102223.16;4991602;28;20018;-71
2021/03/05 09:00:06;;;;;;;5.27;0.97;;;;;;;9.98;52.61;102219.53;4991348;28;20030;-72
2021/03/05 09:02:31;;;;;;;3.10;1.03;;;;;;;10.39;49.42;102217.19;4991384;28;20026;-73
2021/03/05 09:04:57;;;;;;;5.57;1.17;;;;;;;11.04;46.27;102230.19;4991073;28;20100;-73
2021/03/05 09:07:22;;;;;;;2.47;0.90;;;;;;;10.44;46.24;102231.28;4991471;28;20360;-74
2021/03/05 09:09:54;;;;;;;6.33;1.00;;;;;;;10.64;44.39;102242.25;4985409;28;20421;-75
2021/03/05 09:12:24;;;;;;;2.97;1.10;;;;;;;10.28;46.07;102229.09;4991718;28;20089;-75
2021/03/05 09:15:04;;;;;;;3.30;0.90;;;;;;;10.45;42.27;102233.06;4991406;28;20030;-74
2021/03/05 09:17:29;;;;;;;5.53;1.00;;;;;;;10.01;43.18;102238.75;4993540;28;20026;-72
2021/03/05 09:19:55;;;;;;;2.93;0.80;;;;;;;9.30;45.76;102239.25;4994491;28;20035;-72
2021/03/05 09:22:25;;;;;;;4.13;1.00;;;;;;;8.21;48.88;102229.44;4994620;28;20080;-71
2021/03/05 09:25:03;;;;;;;3.70;1.20;;;;;;;6.66;52.93;102244.16;4994841;28;20022;-70
2021/03/05 09:27:34;;;;;;;6.50;1.20;;;;;;;5.08;58.88;102243.84;4994234;28;20557;-70
2021/03/05 09:30:14;;;;;;;5.10;1.27;;;;;;;4.40;61.62;102239.63;4994473;28;20042;-70
2021/03/05 09:32:48;;;;;;;3.43;1.00;;;;;;;3.91;63.26;102246.50;4993543;28;20030;-70
2021/03/05 09:35:14;;;;;;;3.20;1.00;;;;;;;3.64;62.81;102255.38;4993955;28;20557;-69
2021/03/05 09:37:39;;;;;;;3.63;1.10;;;;;;;3.61;63.06;102250.00;4993808;28;20022;-70
2021/03/05 09:40:08;;;;;;;2.77;0.83;;;;;;;3.62;64.72;102259.56;4993715;28;20026;-70
2021/03/05 09:42:45;;;;;;;4.03;1.10;;;;;;;3.43;63.20;102265.44;4994108;28;20085;-70
2021/03/05 09:45:12;;;;;;;3.23;1.07;;;;;;;3.47;65.45;102273.44;4994501;28;20265;-70
2021/03/05 09:47:48;;;;;;;9.17;1.20;;;;;;;3.38;65.22;102272.91;4994161;28;20293;-71
2021/03/05 09:50:21;;;;;;;3.33;0.87;;;;;;;3.22;64.04;102275.44;4994121;28;20278;-71
2021/03/05 09:52:47;;;;;;;2.83;1.23;;;;;;;3.32;63.39;102275.16;4994142;28;20316;-71
2021/03/05 09:55:29;;;;;;;2.33;0.87;;;;;;;3.45;64.23;102271.56;4993372;28;20396;-71
2021/03/05 09:57:56;;;;;;;4.03;1.00;;;;;;;3.44;63.70;102281.03;4983512;28;20022;-71
2021/03/05 10:00:31;;;;;;;3.20;1.00;;;;;;;3.41;61.94;102283.44;4993911;28;20033;-71
2021/03/05 10:03:04;;;;;;;2.57;0.80;;;;;;;3.27;62.81;102286.97;4993437;28;20278;-70
2021/03/05 10:05:30;;;;;;;;;;;;;;;3.08;60.38;102286.69;4993107;28;20285;-70
2021/03/05 10:07:56;;;;;;;4.53;1.33;;;;;;;3.21;62.47;102286.59;4993125;28;19921;-71
2021/03/05 10:10:21;;;;;;;2.90;1.30;;;;;;;3.28;62.82;102301.66;4993821;28;20285;-70
2021/03/05 10:12:54;;;;;;;2.83;1.00;;;;;;;3.18;62.82;102294.19;4994058;28;20080;-70
2021/03/05 10:15:19;;;;;;;;;;;;;;;3.26;63.84;102299.75;4994479;28;20042;-70
2021/03/05 10:17:45;;;;;;;3.23;0.97;;;;;;;3.31;63.50;102301.81;4993632;28;19945;-71
2021/03/05 10:20:11;;;;;;;5.43;0.80;;;;;;;3.37;63.06;102298.69;4993156;28;20030;-72
2021/03/05 10:22:37;;;;;;;2.10;0.80;;;;;;;3.47;61.88;102298.41;4993232;28;20564;-71
2021/03/05 10:25:03;;;;;;;4.60;1.13;;;;;;;3.53;61.17;102298.75;4993282;28;20308;-71
2021/03/05 10:27:42;;;;;;;1.93;0.77;;;;;;;3.52;60.71;102297.88;4993199;28;20030;-71
2021/03/05 10:30:09;;;;;;;2.53;0.90;;;;;;;3.56;58.85;102308.38;4992993;28;20269;-71
2021/03/05 10:32:38;;;;;;;3.67;0.80;;;;;;;3.57;61.49;102311.03;4992970;28;20273;-71
2021/03/05 10:35:07;;;;;;;2.37;0.80;;;;;;;3.70;62.33;102307.44;4980587;28;20634;-70
2021/03/05 10:37:33;;;;;;;2.43;0.90;;;;;;;3.79;62.28;102305.38;4993720;28;20261;-71
2021/03/05 10:40:02;;;;;;;4.83;1.27;;;;;;;3.83;60.15;102315.06;4993841;28;20277;-71
2021/03/05 10:42:28;;;;;;;5.30;0.80;;;;;;;3.89;60.47;102312.81;4993075;28;20026;-71
2021/03/05 10:44:54;;;;;;;2.40;1.00;;;;;;;4.05;60.67;102322.31;4991999;28;20340;-71
2021/03/05 10:47:21;;;;;;;6.03;1.33;;;;;;;3.97;60.21;102319.28;4992284;28;20109;-71
2021/03/05 10:49:50;;;;;;;2.13;1.00;;;;;;;3.95;60.34;102318.31;4993278;28;20081;-71
2021/03/05 10:52:18;;;;;;;5.67;1.00;;;;;;;4.11;61.06;102320.91;4989108;28;20612;-71
2021/03/05 10:54:45;;;;;;;2.87;1.00;;;;;;;4.30;58.09;102329.69;4991294;28;20285;-71
2021/03/05 10:57:15;;;;;;;1.93;0.97;;;;;;;4.33;57.65;102330.72;4992265;28;20273;-72
2021/03/05 10:59:41;;;;;;;1.50;0.63;;;;;;;4.26;57.79;102327.75;4992375;28;20281;-72
2021/03/05 11:02:08;;;;;;;2.17;0.70;;;;;;;4.16;56.64;102321.19;4992998;28;20840;-72
2021/03/05 11:04:33;;;;;;;3.53;0.70;;;;;;;4.16;57.10;102341.00;4991408;28;20140;-72
2021/03/05 11:06:59;;;;;;;2.23;1.00;;;;;;;4.32;57.12;102330.66;4991707;28;20352;-73
2021/03/05 11:09:26;;;;;;;3.17;0.70;;;;;;;4.34;57.97;102341.97;4992506;28;20038;-73
2021/03/05 11:11:52;;;;;;;0.90;0.60;;;;;;;4.36;56.88;102348.13;4992720;28;20084;-72
2021/03/05 11:14:21;;;;;;;3.60;0.70;;;;;;;4.31;57.70;102349.59;4992432;28;20276;-73
2021/03/05 11:16:47;;;;;;;1.77;0.70;;;;;;;4.31;55.24;102342.72;4992480;28;20348;-73
2021/03/05 11:19:13;;;;;;;3.27;1.43;;;;;;;4.33;57.78;102351.44;4993175;28;20360;-73
2021/03/05 11:21:39;;;;;;;3.27;1.00;;;;;;;4.51;57.63;102356.72;4992607;28;20304;-73
2021/03/05 11:24:06;;;;;;;1.93;0.87;;;;;;;4.65;55.42;102354.84;4991766;28;20312;-73
2021/03/05 11:26:33;;;;;;;3.97;1.00;;;;;;;4.65;54.42;102355.75;4992322;28;20092;-72